Time;durP1;ratioP1;P1;durP2;ratioP2;P2;SDS_P1;SDS_P2;PMS_P1;PMS_P2;Temp;Humidity;BMP_temperature;BMP_pressure;BME280_temperature;BME280_humidity;BME280_pressure;Samples;Min_cycle;Max_cycle;Signal;HPM_P1;HPM_P2
2021/12/27 00:02:08;;;;;;;146.20;50.20;;;;;;;-10.45;74.32;100098.36;2069547;83;21825;-68
2021/12/27 00:05:13;;;;;;;132.00;45.30;;;;;;;-10.51;74.36;100085.23;2069725;83;21072;-68
2021/12/27 00:08:14;;;;;;;131.93;44.90;;;;;;;-10.55;74.38;100087.92;2058852;83;21028;-68
2021/12/27 00:11:15;;;;;;;133.87;49.07;;;;;;;-10.62;74.39;100091.89;2070011;82;21064;-68
2021/12/27 00:14:18;;;;;;;168.40;53.00;;;;;;;-10.66;74.39;100099.27;2084065;83;21078;-68
2021/12/27 00:17:19;;;;;;;139.63;48.03;;;;;;;-10.67;74.41;100091.58;2069344;83;21513;-69
2021/12/27 00:20:21;;;;;;;129.83;48.93;;;;;;;-10.70;74.41;100086.53;2074740;83;21362;-68
2021/12/27 00:23:23;;;;;;;146.40;48.93;;;;;;;-10.76;74.39;100087.51;2075946;83;21358;-68
2021/12/27 00:26:25;;;;;;;132.43;47.07;;;;;;;-10.81;74.46;100084.64;2064495;83;21070;-68
2021/12/27 00:29:27;;;;;;;128.23;47.20;;;;;;;-10.85;74.45;100090.28;2087839;83;21718;-68
2021/12/27 00:32:28;;;;;;;140.70;48.67;;;;;;;-10.86;74.47;100080.47;2075859;83;21850;-68
2021/12/27 00:35:32;;;;;;;146.10;50.43;;;;;;;-10.90;74.47;100082.67;2065888;83;21102;-70
2021/12/27 00:38:33;;;;;;;135.80;44.37;;;;;;;-10.97;74.49;100082.42;2074577;83;21864;-67
2021/12/27 00:41:36;;;;;;;147.77;48.93;;;;;;;-11.00;74.67;100079.92;2070042;83;21018;-69
2021/12/27 00:44:37;;;;;;;133.47;46.07;;;;;;;-11.05;74.65;100070.20;2065395;83;21923;-69
2021/12/27 00:47:39;;;;;;;109.30;41.80;;;;;;;-11.10;74.66;100074.58;2065189;83;21049;-68
2021/12/27 00:50:41;;;;;;;117.07;40.37;;;;;;;-11.13;74.68;100078.48;2068438;83;20998;-68
2021/12/27 00:53:42;;;;;;;129.97;45.73;;;;;;;-11.19;74.53;100081.17;2063670;83;21083;-68
2021/12/27 00:56:45;;;;;;;139.23;47.90;;;;;;;-11.21;74.52;100088.04;2072964;83;21025;-68
2021/12/27 00:59:47;;;;;;;113.67;41.77;;;;;;;-11.21;74.60;100085.48;2077895;83;21093;-69
2021/12/27 01:02:49;;;;;;;142.60;46.27;;;;;;;-11.24;74.59;100077.41;2084125;83;21037;-68
2021/12/27 01:05:50;;;;;;;139.93;47.83;;;;;;;-11.18;74.69;100086.70;2070993;83;21586;-68
2021/12/27 01:08:53;;;;;;;134.23;47.33;;;;;;;-11.15;74.69;100079.81;2063448;83;21880;-69
2021/12/27 01:18:17;;;;;;;153.33;51.60;;;;;;;-11.02;74.54;100080.38;2035952;82;22309;-68
2021/12/27 01:21:21;;;;;;;132.33;46.03;;;;;;;-11.03;74.52;100080.44;2077969;83;21005;-68
2021/12/27 01:24:22;;;;;;;139.93;47.00;;;;;;;-11.03;74.53;100086.39;2074703;83;21870;-68
2021/12/27 01:27:24;;;;;;;118.27;39.27;;;;;;;-11.09;74.38;100080.96;2067673;83;21080;-69
2021/12/27 01:30:25;;;;;;;147.43;48.13;;;;;;;-11.11;74.40;100078.86;2068372;83;21113;-69
2021/12/27 01:33:27;;;;;;;129.37;47.43;;;;;;;-11.10;74.46;100074.13;2077427;82;21308;-70
2021/12/27 01:36:32;;;;;;;130.53;46.87;;;;;;;-11.11;74.47;100075.46;2086509;82;21051;-68
2021/12/27 01:39:32;;;;;;;128.97;43.13;;;;;;;-11.12;74.45;100072.47;2066839;82;21128;-68
2021/12/27 01:42:33;;;;;;;129.23;44.93;;;;;;;-11.15;74.42;100079.81;2075504;83;21348;-68
2021/12/27 01:45:40;;;;;;;124.67;41.43;;;;;;;-11.17;74.52;100070.47;2066795;83;21120;-68
2021/12/27 01:48:53;;;;;;;133.73;46.33;;;;;;;-11.15;74.52;100075.09;2067992;83;21268;-69
2021/12/27 01:51:50;;;;;;;114.67;42.10;;;;;;;-11.15;74.39;100068.69;2063415;83;21104;-68
2021/12/27 01:54:51;;;;;;;121.63;42.60;;;;;;;-11.18;74.32;100069.59;2083382;83;21084;-68
2021/12/27 01:57:53;;;;;;;140.33;47.17;;;;;;;-11.21;74.21;100068.38;2080960;83;21025;-69
2021/12/27 02:00:58;;;;;;;143.67;45.10;;;;;;;-11.24;74.24;100068.45;2086149;83;21050;-68
2021/12/27 02:04:00;;;;;;;133.90;44.83;;;;;;;-11.24;74.29;100063.77;2078699;83;21052;-68
2021/12/27 02:07:01;;;;;;;141.03;46.43;;;;;;;-11.22;74.27;100052.62;2074083;83;21081;-68
2021/12/27 02:10:04;;;;;;;130.40;45.27;;;;;;;-11.27;74.09;100050.58;2065185;83;21085;-69
2021/12/27 02:13:06;;;;;;;138.33;44.70;;;;;;;-11.35;74.10;100052.02;2059783;84;21916;-68
2021/12/27 02:16:08;;;;;;;129.60;44.97;;;;;;;-11.37;74.17;100050.38;2077637;83;21445;-69
2021/12/27 02:19:09;;;;;;;127.10;42.57;;;;;;;-11.39;74.15;100046.55;2070783;82;21092;-68
2021/12/27 02:22:11;;;;;;;139.03;43.40;;;;;;;-11.35;74.24;100046.89;2077232;83;21053;-68
2021/12/27 02:25:13;;;;;;;120.97;41.17;;;;;;;-11.34;74.22;100053.72;2067823;82;21143;-68
2021/12/27 02:28:18;;;;;;;129.77;44.27;;;;;;;-11.31;74.25;100048.53;2072579;83;21034;-68
2021/12/27 02:31:19;;;;;;;108.07;40.03;;;;;;;-11.27;74.19;100052.30;2082707;83;21608;-69
2021/12/27 02:34:21;;;;;;;119.97;41.83;;;;;;;-11.17;74.29;100046.12;2079243;83;21888;-69
2021/12/27 02:37:23;;;;;;;119.83;41.53;;;;;;;-11.11;74.21;100040.87;2076037;83;21061;-68
2021/12/27 02:40:27;;;;;;;113.63;39.97;;;;;;;-11.00;74.15;100038.08;2076018;82;21023;-68
2021/12/27 02:43:33;;;;;;;115.80;40.33;;;;;;;-10.97;74.05;100035.00;2074684;83;21018;-68
2021/12/27 02:46:34;;;;;;;119.17;41.30;;;;;;;-11.02;73.90;100030.41;2060715;83;21159;-68
2021/12/27 02:49:36;;;;;;;118.03;43.67;;;;;;;-11.11;73.77;100023.77;2087493;82;21021;-68
2021/12/27 02:52:37;;;;;;;116.63;40.93;;;;;;;-11.18;73.62;100026.48;2055746;83;21972;-68
2021/12/27 02:55:41;;;;;;;115.17;40.87;;;;;;;-11.26;73.66;100023.24;2078998;83;21128;-68
2021/12/27 02:58:43;;;;;;;108.77;37.70;;;;;;;-11.38;73.60;100005.97;2077492;83;21295;-67
2021/12/27 03:01:44;;;;;;;104.40;36.67;;;;;;;-11.45;73.79;100015.12;2066690;83;21290;-68
2021/12/27 03:04:46;;;;;;;109.70;40.20;;;;;;;-11.52;73.88;100007.53;2067375;83;21827;-70
2021/12/27 03:07:49;;;;;;;110.97;39.50;;;;;;;-11.53;74.02;100007.58;2072630;83;21072;-68
2021/12/27 03:10:55;;;;;;;112.67;39.90;;;;;;;-11.53;74.11;99998.17;2072743;83;21050;-68
2021/12/27 03:13:57;;;;;;;100.60;37.10;;;;;;;-11.49;74.13;99999.39;2065410;83;21113;-68
2021/12/27 03:16:58;;;;;;;111.10;38.43;;;;;;;-11.48;74.04;100000.66;2084178;83;21048;-68
2021/12/27 03:20:00;;;;;;;117.10;39.60;;;;;;;-11.48;74.06;99995.53;2071998;83;21350;-68
2021/12/27 03:23:01;;;;;;;110.93;39.43;;;;;;;-11.48;74.06;100005.78;2060542;82;21371;-70
2021/12/27 03:26:04;;;;;;;107.20;37.93;;;;;;;-11.46;74.06;100009.56;2069029;83;21097;-67
2021/12/27 03:29:06;;;;;;;101.47;33.53;;;;;;;-11.42;74.08;100010.77;2067276;83;21156;-68
2021/12/27 03:32:08;;;;;;;103.30;35.70;;;;;;;-11.40;74.00;100005.19;2075180;82;21025;-69
2021/12/27 03:35:14;;;;;;;100.30;34.83;;;;;;;-11.33;74.12;100001.60;2069104;83;21063;-67
2021/12/27 03:38:15;;;;;;;94.87;34.70;;;;;;;-11.22;74.03;100006.95;2081322;83;21340;-68
2021/12/27 03:41:21;;;;;;;93.30;34.00;;;;;;;-11.15;73.90;100002.95;2083063;83;21033;-70
2021/12/27 03:44:23;;;;;;;98.17;35.23;;;;;;;-11.10;73.81;99998.53;2058781;83;21125;-68
2021/12/27 03:47:24;;;;;;;96.27;33.37;;;;;;;-11.11;73.64;100003.71;2073772;83;21144;-68
2021/12/27 03:50:27;;;;;;;97.23;35.73;;;;;;;-11.08;73.71;100002.36;2075153;82;21392;-67
2021/12/27 03:53:29;;;;;;;95.80;33.50;;;;;;;-11.01;73.76;100005.17;2074713;83;21089;-68
2021/12/27 03:56:31;;;;;;;102.33;34.77;;;;;;;-10.89;73.72;100003.64;2066574;83;21057;-67
2021/12/27 04:02:47;;;;;;;89.13;32.20;;;;;;;-10.92;73.62;100005.44;2068164;83;21043;-68
2021/12/27 04:05:48;;;;;;;86.53;31.40;;;;;;;-10.93;73.53;99996.88;2065956;83;21849;-68
2021/12/27 04:08:50;;;;;;;87.00;32.03;;;;;;;-10.98;73.44;100001.30;2072727;83;21050;-68
2021/12/27 04:11:51;;;;;;;89.03;31.37;;;;;;;-11.06;73.45;100003.18;2070927;83;21433;-68
2021/12/27 04:14:53;;;;;;;88.93;30.00;;;;;;;-11.11;73.47;99998.59;2062889;82;21002;-68
2021/12/27 04:17:55;;;;;;;91.30;29.47;;;;;;;-11.19;73.44;100008.16;2077968;83;21147;-68
2021/12/27 04:20:56;;;;;;;86.03;29.50;;;;;;;-11.26;73.49;100004.03;2076197;83;21405;-68
2021/12/27 04:23:58;;;;;;;80.00;26.33;;;;;;;-11.34;73.48;100000.37;2073442;83;21378;-70
2021/12/27 04:26:59;;;;;;;87.43;30.00;;;;;;;-11.41;73.52;100006.04;2067129;83;21911;-68
2021/12/27 04:30:02;;;;;;;77.63;27.40;;;;;;;-11.45;73.66;100000.59;2074860;83;21062;-68
2021/12/27 04:33:04;;;;;;;76.00;29.10;;;;;;;-11.51;73.66;99994.32;2064975;83;21608;-68
2021/12/27 04:36:06;;;;;;;91.13;30.63;;;;;;;-11.54;73.82;99998.23;2073785;83;21099;-68
2021/12/27 04:39:08;;;;;;;82.23;31.63;;;;;;;-11.56;73.94;99996.96;2071647;83;21015;-67
2021/12/27 04:42:09;;;;;;;86.10;30.00;;;;;;;-11.56;73.94;99992.28;2071676;83;21420;-67
2021/12/27 04:45:16;;;;;;;86.77;29.13;;;;;;;-11.58;73.97;99998.70;2072147;83;21363;-68
2021/12/27 04:48:15;;;;;;;87.43;28.30;;;;;;;-11.54;74.11;100000.34;2068544;83;21021;-68
2021/12/27 04:51:17;;;;;;;80.87;26.43;;;;;;;-11.49;74.10;99990.43;2069502;84;21071;-69
2021/12/27 04:54:19;;;;;;;81.93;27.93;;;;;;;-11.49;74.10;99987.42;2073294;83;21126;-67
2021/12/27 04:57:20;;;;;;;79.37;29.37;;;;;;;-11.45;74.13;99989.06;2077220;83;21094;-68
2021/12/27 05:00:22;;;;;;;83.50;29.23;;;;;;;-11.45;74.01;99986.50;2074570;83;21116;-68
2021/12/27 05:03:23;;;;;;;66.63;22.53;;;;;;;-11.46;74.07;99983.52;2059115;83;21099;-67
2021/12/27 05:06:27;;;;;;;86.63;28.87;;;;;;;-11.50;73.96;99988.31;2074122;83;21054;-68
2021/12/27 05:09:28;;;;;;;90.47;30.90;;;;;;;-11.57;73.89;99982.48;2082502;83;21081;-67
2021/12/27 05:12:30;;;;;;;78.10;28.67;;;;;;;-11.57;74.05;99981.20;2074124;82;21147;-68
2021/12/27 05:15:31;;;;;;;74.00;27.70;;;;;;;-11.55;74.25;99970.47;2082274;83;21829;-67
2021/12/27 05:18:33;;;;;;;81.50;28.87;;;;;;;-11.56;74.23;99979.48;2068685;83;22093;-68
2021/12/27 05:21:34;;;;;;;75.93;26.10;;;;;;;-11.54;74.32;99975.18;2071965;83;21030;-67
2021/12/27 05:24:36;;;;;;;87.13;32.20;;;;;;;-11.55;74.29;99977.31;2074139;83;21287;-69
2021/12/27 05:27:39;;;;;;;88.37;31.47;;;;;;;-11.57;74.31;99974.80;2060412;83;20995;-68
2021/12/27 05:30:43;;;;;;;77.40;25.77;;;;;;;-11.56;74.36;99973.08;2069906;83;21117;-68
2021/12/27 05:33:44;;;;;;;89.00;28.43;;;;;;;-11.54;74.41;99971.34;2074927;83;21013;-67
2021/12/27 05:36:46;;;;;;;86.10;28.47;;;;;;;-11.56;74.29;99961.55;2065607;82;21056;-68
2021/12/27 05:39:48;;;;;;;77.13;26.33;;;;;;;-11.62;74.38;99966.37;2059919;83;21056;-68
2021/12/27 05:42:53;;;;;;;87.00;28.23;;;;;;;-11.65;74.44;99959.20;2078400;83;21076;-68
2021/12/27 05:45:54;;;;;;;71.30;26.90;;;;;;;-11.74;74.46;99949.55;2060203;83;21105;-68
2021/12/27 05:48:56;;;;;;;75.87;28.83;;;;;;;-11.71;74.54;99966.97;2067852;83;21091;-67
2021/12/27 05:51:58;;;;;;;77.63;28.70;;;;;;;-11.68;74.71;99960.09;2078461;83;21145;-69
2021/12/27 05:54:59;;;;;;;77.13;28.70;;;;;;;-11.65;74.72;99954.91;2077417;83;21132;-68
2021/12/27 05:58:02;;;;;;;67.90;26.57;;;;;;;-11.60;74.78;99958.22;2067591;83;21154;-67
2021/12/27 06:01:04;;;;;;;66.33;24.63;;;;;;;-11.58;74.71;99956.45;2074095;82;21073;-68
2021/12/27 06:04:06;;;;;;;73.37;26.73;;;;;;;-11.53;74.77;99955.09;2076336;83;21128;-68
2021/12/27 06:07:07;;;;;;;77.00;27.37;;;;;;;-11.48;74.77;99952.00;2064476;83;21046;-68
2021/12/27 06:10:09;;;;;;;69.20;26.17;;;;;;;-11.44;74.77;99953.61;2082089;83;21859;-69
2021/12/27 06:13:11;;;;;;;67.43;26.20;;;;;;;-11.37;74.83;99962.86;2087301;82;21606;-69
2021/12/27 06:16:13;;;;;;;71.03;24.07;;;;;;;-11.32;74.78;99963.61;2074388;82;21006;-69
2021/12/27 06:19:15;;;;;;;58.80;18.83;;;;;;;-11.31;74.78;99962.72;2068067;83;21084;-68
2021/12/27 06:22:17;;;;;;;69.67;25.70;;;;;;;-11.31;74.86;99955.03;2059785;84;21026;-69
2021/12/27 06:25:19;;;;;;;66.50;23.70;;;;;;;-11.34;74.85;99952.54;2062927;83;21370;-69
2021/12/27 06:28:20;;;;;;;70.00;24.90;;;;;;;-11.35;74.90;99950.00;2053808;83;21095;-68
2021/12/27 06:31:23;;;;;;;77.57;27.07;;;;;;;-11.36;74.87;99952.16;2042324;83;21133;-68
2021/12/27 06:34:27;;;;;;;59.67;24.43;;;;;;;-11.41;74.77;99947.13;2074105;83;21079;-68
2021/12/27 06:37:28;;;;;;;50.20;18.97;;;;;;;-11.43;74.78;99951.88;2059302;83;21103;-68
2021/12/27 06:40:30;;;;;;;68.43;27.20;;;;;;;-11.48;74.92;99949.44;2070082;83;21024;-68
2021/12/27 06:43:32;;;;;;;85.80;28.33;;;;;;;-11.49;74.92;99948.17;2068077;83;21110;-68
2021/12/27 06:46:34;;;;;;;79.80;28.83;;;;;;;-11.48;74.90;99948.16;2063698;83;21804;-69
2021/12/27 06:49:37;;;;;;;88.07;28.10;;;;;;;-11.48;74.94;99948.16;2071645;82;21620;-68
2021/12/27 06:52:39;;;;;;;88.40;30.53;;;;;;;-11.49;74.87;99954.58;2081034;83;21044;-68
2021/12/27 06:55:40;;;;;;;76.53;27.40;;;;;;;-11.51;74.88;99957.19;2072623;83;21109;-68
2021/12/27 06:58:42;;;;;;;79.07;26.70;;;;;;;-11.50;74.97;99952.46;2064462;83;21361;-68
2021/12/27 07:01:44;;;;;;;87.53;30.67;;;;;;;-11.51;74.96;99948.23;2067299;83;21352;-68
2021/12/27 07:04:46;;;;;;;86.17;28.57;;;;;;;-11.52;75.11;99949.08;2069764;83;21033;-68
2021/12/27 07:07:47;;;;;;;83.13;29.17;;;;;;;-11.49;75.24;99957.97;2059871;83;21043;-68
2021/12/27 07:10:50;;;;;;;79.20;29.63;;;;;;;-11.46;75.24;99952.78;2072592;83;21101;-69
2021/12/27 07:13:52;;;;;;;77.30;29.73;;;;;;;-11.41;75.36;99952.70;2074734;83;21401;-69
2021/12/27 07:16:53;;;;;;;91.63;31.50;;;;;;;-11.39;75.50;99948.39;2075749;83;21101;-69
2021/12/27 07:19:55;;;;;;;71.43;24.50;;;;;;;-11.33;75.65;99949.09;2078462;83;21320;-68
2021/12/27 07:22:56;;;;;;;72.80;27.93;;;;;;;-11.24;75.66;99949.77;2061546;83;21857;-69
2021/12/27 07:25:58;;;;;;;87.73;30.97;;;;;;;-11.13;75.62;99955.50;2070590;83;21155;-70
2021/12/27 07:29:00;;;;;;;90.70;31.97;;;;;;;-11.02;75.65;99959.09;2087824;83;21587;-79
2021/12/27 07:32:02;;;;;;;73.57;26.40;;;;;;;-10.89;75.64;99946.41;2066833;83;21105;-70
2021/12/27 07:35:06;;;;;;;83.10;30.93;;;;;;;-10.75;75.70;99940.95;2066927;83;21106;-68
2021/12/27 07:38:08;;;;;;;89.10;32.93;;;;;;;-10.61;75.64;99949.15;2077273;83;21035;-73
2021/12/27 07:41:10;;;;;;;92.63;33.73;;;;;;;-10.39;75.71;99941.31;2083011;83;21088;-69
2021/12/27 07:44:12;;;;;;;86.33;33.23;;;;;;;-10.19;75.54;99937.32;2073314;83;21159;-69
2021/12/27 07:47:14;;;;;;;87.83;33.97;;;;;;;-9.98;75.51;99938.04;2073169;83;22303;-70
2021/12/27 07:50:15;;;;;;;80.33;30.67;;;;;;;-9.75;75.46;99941.24;2077343;83;22303;-70
2021/12/27 07:53:17;;;;;;;78.00;29.40;;;;;;;-9.47;75.33;99934.86;2072796;83;21657;-70
2021/12/27 07:56:19;;;;;;;72.57;26.93;;;;;;;-9.32;75.06;99930.16;2064965;83;21100;-69
2021/12/27 07:59:20;;;;;;;67.70;26.47;;;;;;;-9.13;74.96;99931.73;2083975;82;21740;-71
2021/12/27 08:02:22;;;;;;;75.43;29.40;;;;;;;-8.97;74.76;99930.81;2049066;83;21056;-70
2021/12/27 08:05:24;;;;;;;72.10;26.70;;;;;;;-8.85;74.83;99925.27;2081901;83;21078;-70
2021/12/27 08:08:25;;;;;;;66.87;26.57;;;;;;;-8.75;74.55;99916.38;2084476;82;21842;-69
2021/12/27 08:11:27;;;;;;;82.37;29.00;;;;;;;-8.61;74.44;99921.07;2078054;83;21031;-69
2021/12/27 08:14:28;;;;;;;72.17;28.33;;;;;;;-8.39;74.64;99910.88;2073335;82;21013;-69
2021/12/27 08:17:30;;;;;;;72.07;26.47;;;;;;;-8.16;74.25;99907.49;2078769;82;21145;-70
2021/12/27 08:20:32;;;;;;;59.67;24.90;;;;;;;-8.02;73.96;99895.42;2079920;83;21423;-70
2021/12/27 08:23:33;;;;;;;71.43;28.33;;;;;;;-7.82;73.97;99889.09;2071787;83;21000;-70
2021/12/27 08:26:36;;;;;;;78.80;27.27;;;;;;;-7.82;73.97;99889.09;2081221;83;21096;-71
2021/12/27 08:29:37;;;;;;;67.00;26.20;;;;;;;-7.64;73.61;99899.14;2081128;83;21089;-72
2021/12/27 08:32:42;;;;;;;69.63;29.00;;;;;;;-7.55;73.03;99887.66;2067229;83;21076;-70
2021/12/27 08:35:44;;;;;;;80.23;26.70;;;;;;;-7.54;73.09;99892.77;2078300;83;21104;-70
2021/12/27 08:38:48;;;;;;;69.17;26.43;;;;;;;-7.40;73.30;99885.80;2073010;83;21631;-71
2021/12/27 08:41:49;;;;;;;64.93;21.70;;;;;;;-7.30;72.90;99884.52;2097852;83;21398;-71
2021/12/27 08:44:51;;;;;;;63.50;26.93;;;;;;;-7.20;72.89;99891.92;2081121;83;21084;-70
2021/12/27 08:47:52;;;;;;;56.40;24.63;;;;;;;-7.15;72.91;99880.95;2077392;83;21051;-71
2021/12/27 08:50:54;;;;;;;63.13;27.03;;;;;;;-6.97;72.44;99884.55;2079061;82;21143;-70
2021/12/27 08:53:56;;;;;;;68.67;26.40;;;;;;;-6.78;73.00;99877.74;2080750;82;21092;-70
2021/12/27 08:56:57;;;;;;;66.17;27.30;;;;;;;-6.59;72.74;99879.09;2094998;83;21049;-73
2021/12/27 09:00:00;;;;;;;66.43;26.27;;;;;;;-6.32;72.86;99893.41;2089887;82;21073;-74
2021/12/27 09:03:02;;;;;;;68.17;26.33;;;;;;;-6.06;72.62;99893.20;2082447;83;21064;-71
2021/12/27 09:06:04;;;;;;;65.03;25.10;;;;;;;-5.88;71.90;99893.20;2086729;82;21034;-72
2021/12/27 09:09:06;;;;;;;70.33;26.20;;;;;;;-5.78;71.77;99891.48;2077616;83;21611;-72
2021/12/27 09:12:09;;;;;;;60.57;22.63;;;;;;;-5.72;71.40;99893.79;2082511;82;21514;-70
2021/12/27 09:15:14;;;;;;;59.20;22.13;;;;;;;-5.77;71.23;99881.52;2075323;83;21077;-71
2021/12/27 09:18:15;;;;;;;71.63;26.27;;;;;;;-5.67;71.17;99882.80;2073798;83;21026;-71
2021/12/27 09:21:17;;;;;;;61.57;25.90;;;;;;;-5.63;71.85;99875.30;2070306;83;21358;-70
2021/12/27 09:24:19;;;;;;;44.43;17.90;;;;;;;-5.46;71.31;99867.59;2074831;83;21356;-71
2021/12/27 09:27:21;;;;;;;59.83;23.80;;;;;;;-5.27;70.66;99879.19;2068219;83;21863;-70
2021/12/27 09:30:22;;;;;;;50.90;20.37;;;;;;;-5.30;70.77;99877.21;2079867;83;21055;-74
2021/12/27 09:33:24;;;;;;;50.43;22.05;;;;;;;-5.29;70.53;99868.56;2083087;82;21056;-70
2021/12/27 09:36:26;;;;;;;56.40;22.85;;;;;;;-5.26;70.82;99853.73;2078193;83;21157;-70
2021/12/27 09:39:28;;;;;;;52.45;21.27;;;;;;;-5.09;70.67;99852.09;2069960;83;21043;-70
2021/12/27 09:42:30;;;;;;;59.63;23.75;;;;;;;-4.96;70.79;99857.86;2074339;83;21726;-72
2021/12/27 09:45:31;;;;;;;65.78;22.93;;;;;;;-4.85;70.91;99847.44;2090688;83;21556;-71
2021/12/27 09:48:34;;;;;;;62.00;23.70;;;;;;;-4.63;70.74;99842.88;2076601;82;21077;-72
2021/12/27 09:51:37;;;;;;;52.35;22.10;;;;;;;-4.53;70.66;99840.20;2086307;82;21316;-71
2021/12/27 09:54:39;;;;;;;44.27;17.48;;;;;;;-4.31;70.29;99836.50;2083426;83;21544;-70
2021/12/27 09:57:41;;;;;;;41.35;18.27;;;;;;;-4.23;69.47;99831.76;2078649;83;21124;-71
2021/12/27 10:00:43;;;;;;;47.38;21.93;;;;;;;-4.24;69.38;99829.27;2066463;83;21775;-70
2021/12/27 10:03:52;;;;;;;45.25;19.00;;;;;;;-4.30;68.86;99827.36;2067830;83;21580;-69
2021/12/27 10:06:55;;;;;;;45.43;20.90;;;;;;;-4.28;70.14;99820.80;2080190;83;21739;-70
2021/12/27 10:09:59;;;;;;;44.60;18.25;;;;;;;-4.25;69.06;99812.89;2074535;83;21101;-69
2021/12/27 10:13:09;;;;;;;46.00;18.55;;;;;;;-4.38;68.71;99797.14;2070591;83;21150;-69
2021/12/27 10:16:15;;;;;;;50.90;21.23;;;;;;;-4.37;69.46;99790.19;2071557;83;21062;-70
2021/12/27 10:19:20;;;;;;;42.62;19.70;;;;;;;-4.30;69.76;99788.97;2071168;83;21844;-71
2021/12/27 10:22:24;;;;;;;41.48;17.15;;;;;;;-4.10;70.29;99790.50;2068282;82;21147;-70
2021/12/27 10:25:28;;;;;;;40.88;17.35;;;;;;;-4.02;68.55;99788.80;2067088;84;21054;-69
2021/12/27 10:28:30;;;;;;;39.95;18.50;;;;;;;-4.11;68.73;99783.20;2074737;83;21088;-69
2021/12/27 10:31:53;;;;;;;38.33;16.87;;;;;;;-4.04;69.58;99779.80;2082597;82;21017;-70
2021/12/27 10:34:55;;;;;;;40.73;17.30;;;;;;;-3.87;68.70;99768.05;2050852;83;21053;-71
2021/12/27 10:38:24;;;;;;;41.85;16.93;;;;;;;-3.93;68.59;99773.58;2079579;83;21136;-70
2021/12/27 10:41:23;;;;;;;41.48;16.77;;;;;;;-3.99;68.12;99767.44;2056520;84;21119;-70
2021/12/27 10:44:25;;;;;;;42.17;17.85;;;;;;;-3.99;68.26;99775.68;2081648;82;21070;-71
2021/12/27 10:47:44;;;;;;;40.43;18.52;;;;;;;-4.04;68.05;99756.48;2005201;86;21397;-70
2021/12/27 10:50:46;;;;;;;44.75;19.50;;;;;;;-3.85;68.69;99762.34;2013485;86;21073;-70
2021/12/27 10:53:52;;;;;;;35.63;15.43;;;;;;;-3.66;68.99;99750.94;2009071;86;21920;-71
2021/12/27 10:56:54;;;;;;;42.98;17.87;;;;;;;-3.62;67.42;99744.20;2011107;86;21088;-72
2021/12/27 11:00:21;;;;;;;39.65;16.57;;;;;;;-3.65;68.22;99735.30;2045667;83;21322;-71
2021/12/27 11:03:32;;;;;;;41.53;18.55;;;;;;;-3.64;67.77;99730.95;2068151;83;21066;-70
2021/12/27 11:06:40;;;;;;;36.65;17.60;;;;;;;-3.73;67.70;99724.52;2071802;83;21090;-70
2021/12/27 11:09:37;;;;;;;37.35;17.50;;;;;;;-3.76;67.64;99725.16;2066025;83;21341;-71
2021/12/27 11:12:39;;;;;;;38.98;17.07;;;;;;;-3.80;67.39;99721.05;2067016;83;21088;-70
2021/12/27 11:15:42;;;;;;;39.50;17.85;;;;;;;-3.82;67.73;99722.45;2077468;83;21042;-69
2021/12/27 11:18:45;;;;;;;40.58;17.37;;;;;;;-3.81;67.20;99731.05;2060562;83;21355;-70
2021/12/27 11:21:50;;;;;;;44.83;17.65;;;;;;;-3.87;67.24;99718.80;2060631;83;21816;-70
2021/12/27 11:24:51;;;;;;;40.78;18.15;;;;;;;-3.78;67.59;99724.40;2064109;83;21068;-68
2021/12/27 11:27:55;;;;;;;42.43;17.95;;;;;;;-3.73;68.16;99718.03;2064228;83;22943;-70
2021/12/27 11:31:00;;;;;;;44.58;19.57;;;;;;;-3.63;67.63;99716.61;2079255;83;21041;-69
2021/12/27 11:34:12;;;;;;;43.33;18.48;;;;;;;-3.49;67.82;99720.16;2081569;83;21718;-71
2021/12/27 11:37:12;;;;;;;41.30;18.25;;;;;;;-3.44;66.52;99721.56;2069372;83;21041;-71
2021/12/27 11:40:17;;;;;;;38.05;17.70;;;;;;;-3.33;66.85;99704.09;2087482;83;21562;-70
2021/12/27 11:43:18;;;;;;;40.05;18.65;;;;;;;-3.28;67.43;99714.22;2066301;83;21033;-70
2021/12/27 11:46:23;;;;;;;37.95;18.05;;;;;;;-3.25;66.74;99707.08;2043907;84;21008;-70
2021/12/27 11:49:46;;;;;;;42.27;20.00;;;;;;;-3.31;66.92;99701.42;2061482;83;21091;-70
2021/12/27 11:52:49;;;;;;;40.90;18.02;;;;;;;-3.35;66.81;99711.15;2057842;83;21045;-70
2021/12/27 11:55:51;;;;;;;39.65;18.40;;;;;;;-3.37;66.85;99698.72;2063911;83;21848;-70
2021/12/27 11:58:52;;;;;;;38.88;18.02;;;;;;;-3.43;66.81;99701.67;2073914;83;21940;-69
2021/12/27 12:02:00;;;;;;;36.13;17.52;;;;;;;-3.51;67.04;99695.63;2079661;83;21075;-69
2021/12/27 12:05:02;;;;;;;41.85;18.35;;;;;;;-3.58;66.75;99697.34;2068545;83;21152;-69
2021/12/27 12:08:06;;;;;;;40.30;17.62;;;;;;;-3.65;67.14;99689.92;2070195;83;21847;-69
2021/12/27 12:11:13;;;;;;;39.58;17.82;;;;;;;-3.77;66.78;99685.88;2039449;84;21052;-68
2021/12/27 12:14:28;;;;;;;44.20;20.05;;;;;;;-3.82;67.34;99691.34;2046649;85;21909;-69
2021/12/27 12:17:52;;;;;;;45.67;20.35;;;;;;;-3.77;67.87;99680.69;2035530;85;22364;-69
2021/12/27 12:20:50;;;;;;;37.65;16.77;;;;;;;-3.74;67.67;99671.47;2035402;85;21032;-69
2021/12/27 12:23:59;;;;;;;36.13;18.12;;;;;;;-3.77;67.23;99675.06;2078073;83;21050;-69
2021/12/27 12:27:09;;;;;;;45.65;19.35;;;;;;;-3.79;67.70;99674.31;2055525;83;21151;-71
2021/12/27 12:30:14;;;;;;;41.35;17.85;;;;;;;-3.78;67.78;99668.66;2061579;83;21150;-69
2021/12/27 12:33:23;;;;;;;38.08;17.77;;;;;;;-3.73;67.83;99667.47;1998276;86;21897;-69
2021/12/27 12:36:24;;;;;;;38.88;18.48;;;;;;;-3.71;67.71;99662.22;2057805;84;21063;-69
2021/12/27 12:39:35;;;;;;;42.45;18.87;;;;;;;-3.73;67.74;99667.94;2073521;83;21289;-69
2021/12/27 12:42:37;;;;;;;37.23;16.45;;;;;;;-3.67;68.35;99667.59;2061326;83;21054;-69
2021/12/27 12:45:39;;;;;;;40.45;17.50;;;;;;;-3.67;68.09;99661.94;2017121;85;21929;-69
2021/12/27 12:48:43;;;;;;;29.53;12.97;;;;;;;-3.70;68.07;99666.00;2043219;85;21607;-69
2021/12/27 12:51:55;;;;;;;41.50;18.00;;;;;;;-3.68;68.27;99664.16;2043175;85;21794;-69
2021/12/27 12:54:56;;;;;;;44.95;18.73;;;;;;;-3.68;68.50;99654.26;2049178;84;21010;-67
2021/12/27 12:57:58;;;;;;;39.05;16.97;;;;;;;-3.64;68.50;99660.45;2083873;83;21583;-72
2021/12/27 13:01:08;;;;;;;43.73;18.45;;;;;;;-3.59;68.35;99660.67;2072911;83;21277;-69
2021/12/27 13:04:09;;;;;;;35.65;15.93;;;;;;;-3.60;68.45;99667.63;2081267;83;21083;-70
2021/12/27 13:07:14;;;;;;;38.85;18.35;;;;;;;-3.57;68.38;99675.23;2084933;83;21050;-68
2021/12/27 13:10:30;;;;;;;41.70;18.40;;;;;;;-3.58;68.19;99672.23;2068745;83;21608;-68
2021/12/27 13:13:32;;;;;;;44.60;17.55;;;;;;;-3.54;68.46;99668.56;2066915;83;21316;-68
2021/12/27 13:16:34;;;;;;;36.80;17.90;;;;;;;-3.53;68.42;99666.80;2079836;83;21433;-68
2021/12/27 13:19:47;;;;;;;39.45;17.87;;;;;;;-3.55;68.41;99656.97;2035777;83;21326;-68
2021/12/27 13:22:57;;;;;;;41.65;18.42;;;;;;;-3.56;68.14;99661.80;2069463;83;21592;-69
2021/12/27 13:26:04;;;;;;;41.92;18.30;;;;;;;-3.57;68.01;99657.54;1998009;86;21110;-68
2021/12/27 13:29:06;;;;;;;38.85;16.82;;;;;;;-3.60;68.24;99655.95;2069198;83;21084;-68
2021/12/27 13:32:07;;;;;;;40.90;17.98;;;;;;;-3.59;68.32;99656.78;2069855;83;21144;-70
2021/12/27 13:35:13;;;;;;;37.83;17.02;;;;;;;-3.62;68.33;99659.92;2071524;83;21084;-68
2021/12/27 13:38:28;;;;;;;37.70;16.80;;;;;;;-3.63;68.40;99658.27;2077611;83;21042;-69
2021/12/27 13:41:33;;;;;;;39.95;18.52;;;;;;;-3.61;68.35;99669.36;2060120;83;21421;-71
2021/12/27 13:44:37;;;;;;;41.88;18.85;;;;;;;-3.63;68.62;99662.61;2095584;82;21050;-70
2021/12/27 13:47:51;;;;;;;37.38;17.25;;;;;;;-3.63;68.50;99669.92;2066844;83;21854;-70
2021/12/27 13:50:54;;;;;;;40.70;17.20;;;;;;;-3.66;68.21;99675.30;2085238;83;20989;-68
2021/12/27 13:54:07;;;;;;;40.23;18.12;;;;;;;-3.75;68.33;99669.78;2092491;82;21081;-70
2021/12/27 13:57:09;;;;;;;38.92;16.42;;;;;;;-3.80;68.45;99673.09;2073852;82;21459;-68
2021/12/27 14:00:13;;;;;;;31.95;14.28;;;;;;;-3.83;68.35;99668.91;2080527;82;22003;-69
2021/12/27 14:03:33;;;;;;;40.25;17.82;;;;;;;-3.87;68.51;99672.14;2075176;83;21340;-71